AIC424 VAAH-VIDP
Flight info
| Callsign | AIC424 |
|---|---|
| Flight time | 1h 4m |
| Altitude | 39000 |
| Route | UUD1A UUD A347 UKASO UKASO6H |
| Aircraft | B788/H-SDE1E2E3FGHIJ2J3J4J5M1RWXY/LB1D1 |
Departure
| Time | 2026-04-29 17:50 |
|---|---|
| Airport | Sardar Vallabh Patel International Airport (VAAH) |
Arrival
| Time | 2026-04-29 18:55 |
|---|---|
| Airport | Indira Gandhi International Airport (VIDP) |
| Time | Latitude | Longitude | Altitude | Speed | Heading |
|---|---|---|---|---|---|
| 2026-04-29 17:28 | 23.07418 | 72.62514 | 192 ft | 0 kts | 316° |
| 2026-04-29 17:39 | 23.07414 | 72.62518 | 192 ft | 3 kts | 316° |
| 2026-04-29 17:39 | 23.07400 | 72.62533 | 207 ft | 2 kts | 316° |
| 2026-04-29 17:40 | 23.07392 | 72.62541 | 207 ft | 1 kts | 316° |
| 2026-04-29 17:40 | 23.07388 | 72.62545 | 207 ft | 1 kts | 316° |
| 2026-04-29 17:40 | 23.07380 | 72.62553 | 207 ft | 3 kts | 320° |
| 2026-04-29 17:40 | 23.07363 | 72.62555 | 207 ft | 1 kts | 14° |
| 2026-04-29 17:41 | 23.07360 | 72.62551 | 207 ft | 1 kts | 46° |
| 2026-04-29 17:41 | 23.07359 | 72.62551 | 207 ft | 0 kts | 46° |
| 2026-04-29 17:44 | 23.07363 | 72.62556 | 207 ft | 5 kts | 46° |
| 2026-04-29 17:44 | 23.07417 | 72.62616 | 206 ft | 13 kts | 46° |
| 2026-04-29 17:44 | 23.07484 | 72.62692 | 200 ft | 15 kts | 46° |
| 2026-04-29 17:45 | 23.07536 | 72.62767 | 197 ft | 6 kts | 99° |
| 2026-04-29 17:45 | 23.07521 | 72.62803 | 205 ft | 6 kts | 130° |
| 2026-04-29 17:45 | 23.07474 | 72.62856 | 206 ft | 10 kts | 126° |
| 2026-04-29 17:45 | 23.07468 | 72.62915 | 204 ft | 7 kts | 63° |
| 2026-04-29 17:46 | 23.07499 | 72.62959 | 201 ft | 8 kts | 43° |
| 2026-04-29 17:46 | 23.07545 | 72.63006 | 210 ft | 10 kts | 44° |
| 2026-04-29 17:46 | 23.07599 | 72.63064 | 208 ft | 12 kts | 44° |
| 2026-04-29 17:46 | 23.07684 | 72.63149 | 209 ft | 22 kts | 44° |
| 2026-04-29 17:47 | 23.07796 | 72.63272 | 197 ft | 24 kts | 44° |
| 2026-04-29 17:47 | 23.07890 | 72.63400 | 207 ft | 12 kts | 93° |
| 2026-04-29 17:47 | 23.07852 | 72.63452 | 212 ft | 9 kts | 135° |
| 2026-04-29 17:47 | 23.07815 | 72.63509 | 206 ft | 10 kts | 102° |
| 2026-04-29 17:48 | 23.07862 | 72.63595 | 209 ft | 21 kts | 44° |
| 2026-04-29 17:48 | 23.07972 | 72.63715 | 205 ft | 22 kts | 43° |
| 2026-04-29 17:48 | 23.08089 | 72.63840 | 197 ft | 29 kts | 44° |
| 2026-04-29 17:48 | 23.08267 | 72.64029 | 214 ft | 37 kts | 44° |
| 2026-04-29 17:49 | 23.08454 | 72.64230 | 207 ft | 40 kts | 45° |
| 2026-04-29 17:49 | 23.08677 | 72.64468 | 210 ft | 47 kts | 45° |
| 2026-04-29 17:49 | 23.08835 | 72.64582 | 208 ft | 20 kts | 31° |
| 2026-04-29 17:49 | 23.08847 | 72.64614 | 207 ft | 2 kts | 122° |
| 2026-04-29 17:50 | 23.08828 | 72.64623 | 205 ft | 5 kts | 189° |
| 2026-04-29 17:50 | 23.08741 | 72.64535 | 203 ft | 44 kts | 224° |
| 2026-04-29 17:50 | 23.08306 | 72.64069 | 210 ft | 131 kts | 224° |
| 2026-04-29 17:50 | 23.07554 | 72.63246 | 982 ft | 145 kts | 225° |
| 2026-04-29 17:51 | 23.06990 | 72.62267 | 1954 ft | 170 kts | 254° |
| 2026-04-29 17:51 | 23.07248 | 72.61134 | 3255 ft | 154 kts | 293° |
| 2026-04-29 17:51 | 23.07817 | 72.60028 | 3736 ft | 195 kts | 295° |
| 2026-04-29 17:51 | 23.08444 | 72.58562 | 3727 ft | 225 kts | 292° |
| 2026-04-29 17:52 | 23.09106 | 72.56936 | 4417 ft | 235 kts | 292° |
| 2026-04-29 17:52 | 23.09566 | 72.55817 | 5022 ft | 252 kts | 292° |
| 2026-04-29 17:52 | 23.10555 | 72.53429 | 6526 ft | 263 kts | 294° |
| 2026-04-29 17:52 | 23.11302 | 72.51624 | 7705 ft | 267 kts | 294° |
| 2026-04-29 17:53 | 23.12153 | 72.49809 | 8841 ft | 274 kts | 306° |
| 2026-04-29 17:53 | 23.13498 | 72.48307 | 9947 ft | 280 kts | 314° |
| 2026-04-29 17:53 | 23.14915 | 72.46764 | 10656 ft | 301 kts | 313° |
| 2026-04-29 17:53 | 23.16488 | 72.45136 | 11049 ft | 330 kts | 322° |
| 2026-04-29 17:54 | 23.18658 | 72.44068 | 11571 ft | 355 kts | 345° |
| 2026-04-29 17:54 | 23.21146 | 72.43958 | 12700 ft | 363 kts | 6° |
| 2026-04-29 17:54 | 23.23559 | 72.44853 | 13719 ft | 375 kts | 27° |
| 2026-04-29 17:54 | 23.25663 | 72.46624 | 14646 ft | 387 kts | 40° |
| 2026-04-29 17:55 | 23.27520 | 72.48772 | 15568 ft | 394 kts | 44° |
| 2026-04-29 17:55 | 23.29352 | 72.51034 | 16472 ft | 399 kts | 43° |
| 2026-04-29 17:55 | 23.31281 | 72.53176 | 17340 ft | 402 kts | 38° |
| 2026-04-29 17:55 | 23.33344 | 72.55252 | 18162 ft | 407 kts | 37° |
| 2026-04-29 17:56 | 23.35401 | 72.57397 | 18941 ft | 412 kts | 39° |
| 2026-04-29 17:56 | 23.37437 | 72.59639 | 19701 ft | 416 kts | 40° |
| 2026-04-29 17:56 | 23.39467 | 72.61854 | 20456 ft | 420 kts | 39° |
| 2026-04-29 17:56 | 23.41640 | 72.63964 | 21190 ft | 418 kts | 31° |
| 2026-04-29 17:57 | 23.43998 | 72.65868 | 21874 ft | 422 kts | 31° |
| 2026-04-29 17:57 | 23.46349 | 72.67808 | 22587 ft | 427 kts | 32° |
| 2026-04-29 17:57 | 23.48722 | 72.69787 | 23267 ft | 431 kts | 31° |
| 2026-04-29 17:57 | 23.51125 | 72.71775 | 23854 ft | 434 kts | 31° |
| 2026-04-29 17:58 | 23.53542 | 72.73762 | 24429 ft | 437 kts | 31° |
| 2026-04-29 17:58 | 23.55976 | 72.75771 | 25004 ft | 440 kts | 31° |
| 2026-04-29 17:58 | 23.58430 | 72.77805 | 25566 ft | 443 kts | 31° |
| 2026-04-29 17:58 | 23.60858 | 72.79817 | 26117 ft | 446 kts | 31° |
| 2026-04-29 17:59 | 23.63354 | 72.81881 | 26645 ft | 448 kts | 31° |
| 2026-04-29 17:59 | 23.65847 | 72.83944 | 27182 ft | 451 kts | 31° |
| 2026-04-29 17:59 | 23.68355 | 72.86024 | 27708 ft | 453 kts | 31° |
| 2026-04-29 17:59 | 23.70850 | 72.88093 | 28207 ft | 456 kts | 31° |
| 2026-04-29 18:00 | 23.73383 | 72.90194 | 28697 ft | 459 kts | 31° |
| 2026-04-29 18:00 | 23.75930 | 72.92307 | 29171 ft | 461 kts | 31° |
| 2026-04-29 18:00 | 23.78491 | 72.94433 | 29633 ft | 464 kts | 31° |
| 2026-04-29 18:00 | 23.81065 | 72.96572 | 30039 ft | 466 kts | 31° |
| 2026-04-29 18:01 | 23.83653 | 72.98723 | 30369 ft | 469 kts | 31° |
| 2026-04-29 18:01 | 23.86261 | 73.00892 | 30643 ft | 472 kts | 31° |
| 2026-04-29 18:01 | 23.88879 | 73.03070 | 31019 ft | 474 kts | 31° |
| 2026-04-29 18:01 | 23.91478 | 73.05233 | 31311 ft | 477 kts | 31° |
| 2026-04-29 18:02 | 23.94119 | 73.07433 | 31625 ft | 479 kts | 31° |
| 2026-04-29 18:02 | 23.96772 | 73.09644 | 31909 ft | 481 kts | 31° |
| 2026-04-29 18:02 | 23.99447 | 73.11874 | 32197 ft | 484 kts | 31° |
| 2026-04-29 18:02 | 24.02140 | 73.14121 | 32491 ft | 486 kts | 31° |
| 2026-04-29 18:03 | 24.04833 | 73.16371 | 32873 ft | 486 kts | 30° |
| 2026-04-29 18:03 | 24.07487 | 73.18588 | 33245 ft | 486 kts | 30° |
| 2026-04-29 18:03 | 24.10180 | 73.20836 | 33582 ft | 486 kts | 30° |
| 2026-04-29 18:03 | 24.12867 | 73.23083 | 33985 ft | 484 kts | 30° |
| 2026-04-29 18:04 | 24.15544 | 73.25324 | 34348 ft | 484 kts | 30° |
| 2026-04-29 18:04 | 24.18189 | 73.27537 | 34697 ft | 484 kts | 30° |
| 2026-04-29 18:04 | 24.20864 | 73.29776 | 35049 ft | 483 kts | 30° |
| 2026-04-29 18:04 | 24.23456 | 73.32156 | 35370 ft | 490 kts | 38° |
| 2026-04-29 18:05 | 24.25732 | 73.34986 | 35704 ft | 499 kts | 47° |
| 2026-04-29 18:05 | 24.27780 | 73.38074 | 35990 ft | 501 kts | 47° |
| 2026-04-29 18:05 | 24.29824 | 73.41168 | 36342 ft | 500 kts | 47° |
| 2026-04-29 18:05 | 24.31860 | 73.44259 | 36677 ft | 500 kts | 47° |
| 2026-04-29 18:06 | 24.33899 | 73.47355 | 36997 ft | 500 kts | 47° |
| 2026-04-29 18:06 | 24.35937 | 73.50446 | 37303 ft | 500 kts | 47° |
| 2026-04-29 18:06 | 24.37946 | 73.53496 | 37612 ft | 500 kts | 47° |
| 2026-04-29 18:06 | 24.39980 | 73.56589 | 37900 ft | 500 kts | 47° |
| 2026-04-29 18:07 | 24.42020 | 73.59692 | 38204 ft | 500 kts | 47° |
| 2026-04-29 18:07 | 24.44056 | 73.62790 | 38479 ft | 501 kts | 47° |
| 2026-04-29 18:07 | 24.46090 | 73.65888 | 38756 ft | 500 kts | 47° |
| 2026-04-29 18:08 | 24.50188 | 73.72132 | 38813 ft | 505 kts | 47° |
| 2026-04-29 18:08 | 24.54264 | 73.78361 | 38819 ft | 499 kts | 47° |
| 2026-04-29 18:09 | 24.58309 | 73.84536 | 38824 ft | 498 kts | 47° |
| 2026-04-29 18:09 | 24.62888 | 73.90003 | 38853 ft | 482 kts | 30° |
| 2026-04-29 18:10 | 24.68539 | 73.93865 | 38845 ft | 478 kts | 23° |
| 2026-04-29 18:10 | 24.74303 | 73.97526 | 38841 ft | 479 kts | 23° |
| 2026-04-29 18:11 | 24.80072 | 74.01195 | 38833 ft | 479 kts | 23° |
| 2026-04-29 18:11 | 24.85801 | 74.04842 | 38826 ft | 479 kts | 23° |
| 2026-04-29 18:12 | 24.91564 | 74.08515 | 38819 ft | 479 kts | 23° |
| 2026-04-29 18:12 | 24.97336 | 74.12198 | 38818 ft | 479 kts | 23° |
| 2026-04-29 18:13 | 25.03097 | 74.15878 | 38809 ft | 479 kts | 23° |
| 2026-04-29 18:13 | 25.08855 | 74.19560 | 38812 ft | 478 kts | 23° |
| 2026-04-29 18:14 | 25.14612 | 74.23244 | 38809 ft | 478 kts | 23° |
| 2026-04-29 18:14 | 25.20341 | 74.26917 | 38807 ft | 478 kts | 22° |
| 2026-04-29 18:15 | 25.26094 | 74.30607 | 38797 ft | 478 kts | 22° |
| 2026-04-29 18:15 | 25.31837 | 74.34296 | 38803 ft | 478 kts | 22° |
| 2026-04-29 18:16 | 25.37579 | 74.37988 | 38798 ft | 477 kts | 22° |
| 2026-04-29 18:16 | 25.43283 | 74.41659 | 38799 ft | 477 kts | 22° |
| 2026-04-29 18:17 | 25.49019 | 74.45355 | 38785 ft | 477 kts | 22° |
| 2026-04-29 18:17 | 25.54760 | 74.49059 | 38791 ft | 477 kts | 22° |
| 2026-04-29 18:18 | 25.60496 | 74.52764 | 38783 ft | 477 kts | 22° |
| 2026-04-29 18:18 | 25.66245 | 74.56481 | 38777 ft | 478 kts | 22° |
| 2026-04-29 18:19 | 25.71985 | 74.60196 | 38781 ft | 478 kts | 22° |
| 2026-04-29 18:19 | 25.77697 | 74.63898 | 38775 ft | 479 kts | 22° |
| 2026-04-29 18:20 | 25.83446 | 74.67628 | 38774 ft | 479 kts | 22° |
| 2026-04-29 18:20 | 25.89200 | 74.71365 | 38771 ft | 479 kts | 22° |
| 2026-04-29 18:21 | 25.94959 | 74.75110 | 38771 ft | 480 kts | 23° |
| 2026-04-29 18:21 | 26.00728 | 74.78866 | 38767 ft | 480 kts | 23° |
| 2026-04-29 18:22 | 26.06454 | 74.82597 | 38769 ft | 481 kts | 23° |
| 2026-04-29 18:22 | 26.12223 | 74.86362 | 38764 ft | 480 kts | 23° |
| 2026-04-29 18:23 | 26.17989 | 74.90129 | 38758 ft | 481 kts | 23° |
| 2026-04-29 18:23 | 26.23757 | 74.93900 | 38757 ft | 481 kts | 23° |
| 2026-04-29 18:24 | 26.29537 | 74.97685 | 38751 ft | 482 kts | 23° |
| 2026-04-29 18:24 | 26.35323 | 75.01478 | 38743 ft | 482 kts | 23° |
| 2026-04-29 18:25 | 26.41065 | 75.05246 | 38748 ft | 482 kts | 23° |
| 2026-04-29 18:25 | 26.46854 | 75.09047 | 38741 ft | 482 kts | 22° |
| 2026-04-29 18:26 | 26.52647 | 75.12827 | 38737 ft | 482 kts | 22° |
| 2026-04-29 18:26 | 26.58429 | 75.16620 | 38740 ft | 481 kts | 22° |
| 2026-04-29 18:27 | 26.64199 | 75.20401 | 38742 ft | 481 kts | 22° |
| 2026-04-29 18:27 | 26.69972 | 75.24193 | 38736 ft | 481 kts | 22° |
| 2026-04-29 18:28 | 26.75702 | 75.27960 | 38606 ft | 480 kts | 22° |
| 2026-04-29 18:28 | 26.78586 | 75.29856 | 38445 ft | 481 kts | 22° |
| 2026-04-29 18:28 | 26.81468 | 75.31753 | 38270 ft | 481 kts | 22° |
| 2026-04-29 18:28 | 26.84352 | 75.33654 | 38113 ft | 481 kts | 22° |
| 2026-04-29 18:29 | 26.87235 | 75.35555 | 37934 ft | 481 kts | 22° |
| 2026-04-29 18:29 | 26.89145 | 75.36814 | 37825 ft | 481 kts | 22° |
| 2026-04-29 18:29 | 26.93002 | 75.39359 | 37582 ft | 481 kts | 22° |
| 2026-04-29 18:29 | 26.95883 | 75.41261 | 37405 ft | 481 kts | 22° |
| 2026-04-29 18:30 | 26.98766 | 75.43166 | 37233 ft | 481 kts | 22° |
| 2026-04-29 18:30 | 27.01648 | 75.45071 | 37062 ft | 481 kts | 22° |
| 2026-04-29 18:30 | 27.04505 | 75.46965 | 36286 ft | 475 kts | 22° |
| 2026-04-29 18:30 | 27.07378 | 75.48863 | 34992 ft | 479 kts | 23° |
| 2026-04-29 18:31 | 27.10221 | 75.50741 | 33831 ft | 480 kts | 23° |
| 2026-04-29 18:31 | 27.13129 | 75.52668 | 32862 ft | 489 kts | 24° |
| 2026-04-29 18:31 | 27.16052 | 75.54611 | 32747 ft | 487 kts | 24° |
| 2026-04-29 18:31 | 27.18981 | 75.56557 | 32491 ft | 488 kts | 24° |
| 2026-04-29 18:32 | 27.21873 | 75.58474 | 32261 ft | 488 kts | 24° |
| 2026-04-29 18:32 | 27.27710 | 75.62354 | 31991 ft | 486 kts | 25° |
| 2026-04-29 18:32 | 27.30627 | 75.64294 | 31848 ft | 485 kts | 25° |
| 2026-04-29 18:33 | 27.33523 | 75.66222 | 31685 ft | 484 kts | 25° |
| 2026-04-29 18:33 | 27.36437 | 75.68160 | 31193 ft | 487 kts | 25° |
| 2026-04-29 18:33 | 27.39312 | 75.70077 | 30634 ft | 484 kts | 26° |
| 2026-04-29 18:33 | 27.42211 | 75.72013 | 30087 ft | 481 kts | 26° |
| 2026-04-29 18:34 | 27.45080 | 75.73927 | 29487 ft | 478 kts | 27° |
| 2026-04-29 18:34 | 27.46050 | 75.74574 | 29263 ft | 477 kts | 27° |
| 2026-04-29 18:34 | 27.50783 | 75.77735 | 28211 ft | 472 kts | 27° |
| 2026-04-29 18:34 | 27.53603 | 75.79620 | 27599 ft | 469 kts | 27° |
| 2026-04-29 18:35 | 27.56368 | 75.81470 | 26995 ft | 467 kts | 27° |
| 2026-04-29 18:35 | 27.59158 | 75.83336 | 26402 ft | 463 kts | 27° |
| 2026-04-29 18:35 | 27.61924 | 75.85188 | 25840 ft | 460 kts | 26° |
| 2026-04-29 18:35 | 27.64785 | 75.86725 | 25287 ft | 450 kts | 15° |
| 2026-04-29 18:36 | 27.67721 | 75.87756 | 24739 ft | 444 kts | 13° |
| 2026-04-29 18:36 | 27.70663 | 75.88747 | 24195 ft | 440 kts | 12° |
| 2026-04-29 18:36 | 27.73597 | 75.89728 | 23671 ft | 437 kts | 12° |
| 2026-04-29 18:36 | 27.76499 | 75.90703 | 23100 ft | 434 kts | 12° |
| 2026-04-29 18:37 | 27.79381 | 75.91677 | 22472 ft | 430 kts | 12° |
| 2026-04-29 18:37 | 27.82242 | 75.92643 | 21863 ft | 427 kts | 12° |
| 2026-04-29 18:37 | 27.84128 | 75.93278 | 21457 ft | 425 kts | 13° |
| 2026-04-29 18:37 | 27.86950 | 75.94229 | 20872 ft | 422 kts | 13° |
| 2026-04-29 18:38 | 27.89748 | 75.95174 | 20288 ft | 418 kts | 13° |
| 2026-04-29 18:38 | 27.92530 | 75.96114 | 19712 ft | 415 kts | 13° |
| 2026-04-29 18:38 | 27.96184 | 75.97349 | 18970 ft | 411 kts | 13° |
| 2026-04-29 18:38 | 27.98031 | 75.97974 | 18601 ft | 408 kts | 13° |
| 2026-04-29 18:39 | 28.00713 | 75.98881 | 18068 ft | 405 kts | 13° |
| 2026-04-29 18:39 | 28.03410 | 75.99794 | 17457 ft | 402 kts | 13° |
| 2026-04-29 18:39 | 28.06082 | 76.00699 | 16846 ft | 398 kts | 13° |
| 2026-04-29 18:39 | 28.08732 | 76.01597 | 16237 ft | 395 kts | 13° |
| 2026-04-29 18:40 | 28.11325 | 76.02476 | 15660 ft | 392 kts | 13° |
| 2026-04-29 18:40 | 28.13927 | 76.03359 | 15082 ft | 389 kts | 13° |
| 2026-04-29 18:40 | 28.16510 | 76.04235 | 14509 ft | 385 kts | 13° |
| 2026-04-29 18:40 | 28.19065 | 76.05122 | 13962 ft | 383 kts | 15° |
| 2026-04-29 18:41 | 28.24880 | 76.11179 | 12233 ft | 390 kts | 60° |
| 2026-04-29 18:41 | 28.26087 | 76.13865 | 11797 ft | 383 kts | 61° |
| 2026-04-29 18:42 | 28.27266 | 76.16549 | 11387 ft | 375 kts | 61° |
| 2026-04-29 18:42 | 28.28420 | 76.19178 | 10967 ft | 368 kts | 61° |
| 2026-04-29 18:42 | 28.29567 | 76.21759 | 10569 ft | 363 kts | 61° |
| 2026-04-29 18:42 | 28.30688 | 76.24280 | 10167 ft | 360 kts | 61° |
| 2026-04-29 18:43 | 28.31809 | 76.26818 | 9771 ft | 358 kts | 61° |
| 2026-04-29 18:43 | 28.32919 | 76.29335 | 9364 ft | 355 kts | 61° |
| 2026-04-29 18:43 | 28.34024 | 76.31837 | 8936 ft | 353 kts | 62° |
| 2026-04-29 18:43 | 28.35111 | 76.34298 | 8520 ft | 351 kts | 62° |
| 2026-04-29 18:44 | 28.36203 | 76.36773 | 8107 ft | 349 kts | 62° |
| 2026-04-29 18:44 | 28.37290 | 76.39239 | 7698 ft | 347 kts | 62° |
| 2026-04-29 18:44 | 28.38369 | 76.41688 | 7286 ft | 344 kts | 62° |
| 2026-04-29 18:44 | 28.39426 | 76.44090 | 6892 ft | 342 kts | 62° |
| 2026-04-29 18:45 | 28.40487 | 76.46502 | 6488 ft | 339 kts | 62° |
| 2026-04-29 18:45 | 28.41539 | 76.48892 | 6145 ft | 336 kts | 62° |
| 2026-04-29 18:45 | 28.42584 | 76.51269 | 5804 ft | 335 kts | 62° |
| 2026-04-29 18:45 | 28.43620 | 76.53630 | 5469 ft | 333 kts | 63° |
| 2026-04-29 18:46 | 28.44652 | 76.55982 | 5132 ft | 331 kts | 62° |
| 2026-04-29 18:46 | 28.45675 | 76.58312 | 4905 ft | 328 kts | 62° |
| 2026-04-29 18:46 | 28.46671 | 76.60585 | 4672 ft | 320 kts | 62° |
| 2026-04-29 18:46 | 28.47642 | 76.62802 | 4428 ft | 307 kts | 62° |
| 2026-04-29 18:47 | 28.48576 | 76.64934 | 4175 ft | 295 kts | 63° |
| 2026-04-29 18:47 | 28.49476 | 76.66991 | 3940 ft | 284 kts | 63° |
| 2026-04-29 18:47 | 28.50330 | 76.68946 | 3930 ft | 270 kts | 62° |
| 2026-04-29 18:47 | 28.51158 | 76.70836 | 3934 ft | 269 kts | 62° |
| 2026-04-29 18:48 | 28.52013 | 76.72728 | 3934 ft | 268 kts | 58° |
| 2026-04-29 18:48 | 28.53214 | 76.74337 | 3931 ft | 268 kts | 46° |
| 2026-04-29 18:48 | 28.54432 | 76.75874 | 3925 ft | 253 kts | 47° |
| 2026-04-29 18:48 | 28.55568 | 76.77332 | 3927 ft | 241 kts | 46° |
| 2026-04-29 18:49 | 28.56670 | 76.78731 | 3930 ft | 236 kts | 46° |
| 2026-04-29 18:49 | 28.57773 | 76.80124 | 3931 ft | 235 kts | 46° |
| 2026-04-29 18:49 | 28.58864 | 76.81508 | 3932 ft | 234 kts | 46° |
| 2026-04-29 18:49 | 28.59950 | 76.82887 | 3930 ft | 235 kts | 46° |
| 2026-04-29 18:50 | 28.60977 | 76.84196 | 3928 ft | 235 kts | 48° |
| 2026-04-29 18:50 | 28.61685 | 76.85618 | 3591 ft | 233 kts | 76° |
| 2026-04-29 18:50 | 28.61650 | 76.87426 | 3176 ft | 225 kts | 103° |
| 2026-04-29 18:50 | 28.61248 | 76.89121 | 2798 ft | 218 kts | 106° |
| 2026-04-29 18:51 | 28.60848 | 76.90754 | 2419 ft | 215 kts | 106° |
| 2026-04-29 18:51 | 28.60461 | 76.92404 | 2024 ft | 218 kts | 106° |
| 2026-04-29 18:51 | 28.60076 | 76.94059 | 1943 ft | 211 kts | 105° |
| 2026-04-29 18:51 | 28.59716 | 76.95612 | 1948 ft | 192 kts | 105° |
| 2026-04-29 18:52 | 28.59404 | 76.96961 | 1938 ft | 164 kts | 105° |
| 2026-04-29 18:52 | 28.59120 | 76.98186 | 1946 ft | 159 kts | 106° |
| 2026-04-29 18:52 | 28.58840 | 76.99393 | 1943 ft | 155 kts | 106° |
| 2026-04-29 18:52 | 28.58563 | 77.00582 | 1939 ft | 157 kts | 106° |
| 2026-04-29 18:53 | 28.58279 | 77.01800 | 1877 ft | 163 kts | 106° |
| 2026-04-29 18:53 | 28.57994 | 77.03042 | 1676 ft | 158 kts | 105° |
| 2026-04-29 18:53 | 28.57721 | 77.04238 | 1493 ft | 154 kts | 106° |
| 2026-04-29 18:53 | 28.57451 | 77.05398 | 1305 ft | 150 kts | 106° |
| 2026-04-29 18:54 | 28.57160 | 77.06520 | 1187 ft | 147 kts | 108° |
| 2026-04-29 18:54 | 28.56900 | 77.07658 | 1023 ft | 151 kts | 103° |
| 2026-04-29 18:54 | 28.56653 | 77.08782 | 800 ft | 144 kts | 104° |
| 2026-04-29 18:54 | 28.56437 | 77.09715 | 781 ft | 82 kts | 104° |
| 2026-04-29 18:55 | 28.56344 | 77.10129 | 780 ft | 47 kts | 104° |
| 2026-04-29 18:55 | 28.56267 | 77.10463 | 780 ft | 41 kts | 104° |
| 2026-04-29 18:55 | 28.56192 | 77.10764 | 779 ft | 38 kts | 112° |
| 2026-04-29 18:55 | 28.56034 | 77.10973 | 779 ft | 23 kts | 156° |
| 2026-04-29 18:56 | 28.55975 | 77.10923 | 779 ft | 12 kts | 269° |
| 2026-04-29 18:56 | 28.56001 | 77.10799 | 779 ft | 18 kts | 285° |
| 2026-04-29 18:56 | 28.56033 | 77.10655 | 780 ft | 19 kts | 285° |
| 2026-04-29 18:56 | 28.56069 | 77.10502 | 780 ft | 23 kts | 284° |
| 2026-04-29 18:57 | 28.56119 | 77.10286 | 780 ft | 33 kts | 284° |
| 2026-04-29 18:57 | 28.56178 | 77.10030 | 779 ft | 33 kts | 285° |
| 2026-04-29 18:57 | 28.56237 | 77.09770 | 779 ft | 38 kts | 285° |
| 2026-04-29 18:57 | 28.56321 | 77.09412 | 779 ft | 49 kts | 284° |
| 2026-04-29 18:58 | 28.56394 | 77.09087 | 779 ft | 42 kts | 285° |
| 2026-04-29 18:58 | 28.56473 | 77.08765 | 779 ft | 41 kts | 285° |
| 2026-04-29 18:58 | 28.56542 | 77.08451 | 779 ft | 40 kts | 282° |
| 2026-04-29 18:58 | 28.56528 | 77.08159 | 779 ft | 37 kts | 241° |
| 2026-04-29 18:59 | 28.56392 | 77.07993 | 779 ft | 21 kts | 193° |
| 2026-04-29 18:59 | 28.56211 | 77.07940 | 779 ft | 31 kts | 194° |
| 2026-04-29 18:59 | 28.55963 | 77.07865 | 779 ft | 40 kts | 195° |
| 2026-04-29 18:59 | 28.55701 | 77.07788 | 779 ft | 38 kts | 196° |
| 2026-04-29 19:00 | 28.55453 | 77.07716 | 779 ft | 36 kts | 193° |
| 2026-04-29 19:00 | 28.55210 | 77.07646 | 779 ft | 35 kts | 196° |
| 2026-04-29 19:00 | 28.55064 | 77.07660 | 779 ft | 16 kts | 123° |
| 2026-04-29 19:00 | 28.55029 | 77.07800 | 779 ft | 23 kts | 105° |
| 2026-04-29 19:01 | 28.54976 | 77.08023 | 779 ft | 35 kts | 105° |
| 2026-04-29 19:01 | 28.54932 | 77.08273 | 779 ft | 17 kts | 76° |
| 2026-04-29 19:01 | 28.55040 | 77.08334 | 779 ft | 22 kts | 20° |
| 2026-04-29 19:01 | 28.55112 | 77.08446 | 779 ft | 19 kts | 64° |
| 2026-04-29 19:02 | 28.55150 | 77.08550 | 779 ft | 11 kts | 94° |
| 2026-04-29 19:02 | 28.55135 | 77.08579 | 779 ft | 4 kts | 155° |
| 2026-04-29 19:02 | 28.55099 | 77.08569 | 779 ft | 10 kts | 208° |
| 2026-04-29 19:02 | 28.55062 | 77.08553 | 779 ft | 1 kts | 197° |
| 2026-04-29 19:03 | 28.55055 | 77.08551 | 779 ft | 0 kts | 196° |